createdAt,value
2022-08-24T00:00:37.727Z,2.70
2022-08-24T00:03:04.830Z,2.87
2022-08-24T00:05:32.064Z,2.83
2022-08-24T00:07:59.215Z,2.30
2022-08-24T00:10:26.716Z,2.70
2022-08-24T00:12:53.744Z,2.67
2022-08-24T00:15:21.096Z,2.97
2022-08-24T00:17:48.165Z,2.40
2022-08-24T00:20:15.165Z,3.10
2022-08-24T00:22:42.674Z,2.70
2022-08-24T00:25:12.214Z,2.80
2022-08-24T00:27:41.161Z,3.07
2022-08-24T00:30:11.695Z,2.40
2022-08-24T00:32:38.890Z,2.90
2022-08-24T00:35:07.638Z,2.87
2022-08-24T00:37:35.872Z,2.73
2022-08-24T00:40:06.618Z,3.30
2022-08-24T00:42:34.109Z,3.17
2022-08-24T00:45:01.149Z,3.07
2022-08-24T00:47:34.808Z,2.63
2022-08-24T00:50:09.100Z,2.67
2022-08-24T00:52:40.648Z,2.80
2022-08-24T00:55:21.161Z,2.90
2022-08-24T00:57:52.146Z,3.17
2022-08-24T01:00:23.477Z,2.70
2022-08-24T01:02:55.294Z,3.10
2022-08-24T01:05:22.509Z,2.83
2022-08-24T01:07:50.808Z,2.80
2022-08-24T01:10:25.237Z,3.27
2022-08-24T01:13:00.635Z,2.83
2022-08-24T01:15:30.996Z,2.70
2022-08-24T01:18:17.261Z,3.30
2022-08-24T01:20:56.272Z,3.20
2022-08-24T01:23:51.643Z,3.37
2022-08-24T01:26:35.434Z,3.47
2022-08-24T01:29:08.651Z,2.70
2022-08-24T01:31:36.713Z,2.97
2022-08-24T01:34:05.155Z,3.10
2022-08-24T01:36:39.404Z,3.00
2022-08-24T01:39:21.332Z,3.33
2022-08-24T01:41:49.568Z,3.27
2022-08-24T01:44:17.688Z,3.13
2022-08-24T01:46:46.337Z,3.40
2022-08-24T01:49:13.654Z,3.40
2022-08-24T01:51:41.080Z,2.90
2022-08-24T01:54:08.535Z,3.03
2022-08-24T01:56:36.673Z,3.20
2022-08-24T01:59:06.743Z,3.67
2022-08-24T02:01:42.562Z,3.00
2022-08-24T02:04:10.268Z,3.80
2022-08-24T02:06:38.974Z,3.20
2022-08-24T02:09:09.298Z,3.00
2022-08-24T02:11:38.116Z,3.17
2022-08-24T02:14:05.303Z,3.23
2022-08-24T02:16:33.410Z,3.27
2022-08-24T02:19:00.457Z,3.50
2022-08-24T02:21:27.671Z,3.37
2022-08-24T02:23:54.749Z,3.70
2022-08-24T02:26:21.775Z,3.53
2022-08-24T02:28:50.010Z,3.27
2022-08-24T02:31:17.723Z,3.27
2022-08-24T02:33:45.844Z,3.50
2022-08-24T02:36:25.084Z,3.50
2022-08-24T02:38:54.993Z,3.60
2022-08-24T02:41:25.686Z,3.87
2022-08-24T02:43:54.712Z,3.57
2022-08-24T02:46:24.477Z,3.90
2022-08-24T02:48:57.480Z,3.90
2022-08-24T02:51:44.047Z,3.47
2022-08-24T02:54:17.394Z,3.80
2022-08-24T02:56:46.027Z,3.97
2022-08-24T02:59:14.085Z,3.83
2022-08-24T03:01:41.323Z,3.60
2022-08-24T03:04:08.786Z,3.93
2022-08-24T03:06:36.012Z,3.80
2022-08-24T03:09:03.508Z,3.73
2022-08-24T03:11:31.183Z,3.47
2022-08-24T03:13:59.231Z,3.33
2022-08-24T03:16:28.489Z,3.90
2022-08-24T03:18:56.105Z,3.77
2022-08-24T03:21:26.718Z,3.37
2022-08-24T03:23:53.922Z,3.73
2022-08-24T03:26:22.986Z,3.47
2022-08-24T03:28:51.218Z,3.57
2022-08-24T03:31:19.398Z,3.60
2022-08-24T03:33:47.495Z,4.07
2022-08-24T03:36:14.771Z,4.10
2022-08-24T03:38:43.295Z,4.10
2022-08-24T03:41:11.393Z,3.40
2022-08-24T03:43:51.665Z,4.07
2022-08-24T03:46:28.873Z,4.53
2022-08-24T03:48:58.502Z,3.47
2022-08-24T03:51:28.501Z,3.87
2022-08-24T03:53:58.039Z,4.30
2022-08-24T03:56:28.418Z,3.73
2022-08-24T03:58:55.893Z,4.27
2022-08-24T04:01:25.114Z,3.73
2022-08-24T04:03:54.344Z,4.07
2022-08-24T04:06:25.801Z,3.87
2022-08-24T04:08:54.115Z,3.90
2022-08-24T04:11:24.880Z,3.97
2022-08-24T04:13:56.709Z,3.70
2022-08-24T04:16:24.990Z,4.90
2022-08-24T04:19:00.986Z,3.60
2022-08-24T04:21:31.140Z,4.33
2022-08-24T04:24:04.751Z,3.83
2022-08-24T04:26:44.976Z,4.40
2022-08-24T04:29:15.890Z,3.70
2022-08-24T04:31:48.071Z,4.20
2022-08-24T04:34:16.713Z,4.53
2022-08-24T04:36:45.084Z,3.83
2022-08-24T04:39:13.116Z,3.90
2022-08-24T04:42:05.716Z,4.77
2022-08-24T04:44:38.097Z,4.43
2022-08-24T04:47:05.561Z,4.20
2022-08-24T04:49:32.834Z,4.00
2022-08-24T04:51:59.895Z,3.60
2022-08-24T04:54:27.464Z,4.03
2022-08-24T04:57:05.946Z,4.63
2022-08-24T04:59:36.584Z,3.93
2022-08-24T05:02:03.918Z,4.30
2022-08-24T05:04:31.241Z,4.20
2022-08-24T05:06:58.815Z,4.63
2022-08-24T05:09:25.892Z,4.13
2022-08-24T05:11:53.945Z,4.10
2022-08-24T05:14:28.787Z,4.10
2022-08-24T05:16:56.487Z,4.30
2022-08-24T05:19:24.549Z,3.67
2022-08-24T05:21:52.141Z,3.53
2022-08-24T05:24:20.549Z,3.60
2022-08-24T05:26:48.010Z,3.30
2022-08-24T05:29:17.177Z,4.00
2022-08-24T05:31:48.236Z,4.60
2022-08-24T05:34:16.421Z,3.80
2022-08-24T05:36:43.575Z,3.77
2022-08-24T05:39:27.406Z,4.37
2022-08-24T05:41:56.491Z,4.30
2022-08-24T05:44:30.797Z,4.00
2022-08-24T05:47:01.229Z,4.43
2022-08-24T05:49:29.057Z,4.80
2022-08-24T05:51:56.062Z,4.47
2022-08-24T05:54:24.091Z,5.30
2022-08-24T05:56:57.415Z,5.30
2022-08-24T05:59:24.529Z,4.87
2022-08-24T06:01:53.587Z,4.63
2022-08-24T06:04:21.093Z,4.90
2022-08-24T06:06:50.116Z,4.57
2022-08-24T06:09:17.683Z,4.73
2022-08-24T06:11:45.724Z,5.07
2022-08-24T06:14:15.814Z,4.73
2022-08-24T06:16:52.933Z,4.40
2022-08-24T06:19:21.998Z,4.90
2022-08-24T06:21:51.702Z,4.93
2022-08-24T06:24:44.780Z,4.77
2022-08-24T06:27:22.087Z,4.77
2022-08-24T06:29:53.007Z,4.37
2022-08-24T06:32:39.460Z,4.43
2022-08-24T06:35:08.052Z,4.10
2022-08-24T06:37:38.826Z,4.50
2022-08-24T06:40:07.555Z,4.00
2022-08-24T06:42:35.464Z,4.20
2022-08-24T06:45:03.289Z,4.37
2022-08-24T06:47:31.150Z,3.63
2022-08-24T06:50:01.501Z,3.67
2022-08-24T06:52:29.455Z,3.80
2022-08-24T06:54:56.867Z,3.77
2022-08-24T06:57:24.011Z,3.53
2022-08-24T06:59:54.408Z,4.10
2022-08-24T07:02:21.654Z,4.50
2022-08-24T07:04:49.287Z,4.87
2022-08-24T07:07:34.932Z,4.57
2022-08-24T07:10:02.170Z,5.13
2022-08-24T07:12:30.201Z,4.73
2022-08-24T07:14:57.328Z,4.72
2022-08-24T07:17:24.399Z,4.67
2022-08-24T07:19:51.516Z,4.23
2022-08-24T07:22:38.823Z,3.97
2022-08-24T07:25:07.099Z,4.40
2022-08-24T07:27:35.279Z,3.70
2022-08-24T07:30:25.317Z,4.53
2022-08-24T07:32:50.256Z,4.40
2022-08-24T07:35:18.024Z,4.60
2022-08-24T07:37:45.151Z,3.97
2022-08-24T07:40:12.793Z,4.27
2022-08-24T07:42:42.671Z,3.63
2022-08-24T07:45:10.222Z,3.30
2022-08-24T07:47:41.066Z,3.40
2022-08-24T07:50:23.354Z,4.50
2022-08-24T07:52:50.500Z,4.33
2022-08-24T07:55:17.729Z,3.73
2022-08-24T07:57:46.312Z,4.00
2022-08-24T08:00:15.828Z,3.87
2022-08-24T08:02:47.437Z,3.83
2022-08-24T08:05:19.680Z,3.27
2022-08-24T08:07:52.235Z,3.27
2022-08-24T08:10:20.346Z,3.73
2022-08-24T08:12:47.468Z,3.13
2022-08-24T08:15:14.560Z,3.30
2022-08-24T08:17:55.925Z,3.27
2022-08-24T08:20:24.221Z,2.80
2022-08-24T08:23:10.278Z,2.23
2022-08-24T08:25:57.595Z,2.37
2022-08-24T08:28:36.419Z,2.30
2022-08-24T08:31:05.831Z,2.67
2022-08-24T08:33:36.051Z,2.37
2022-08-24T08:36:06.960Z,2.20
2022-08-24T08:38:36.717Z,2.57
2022-08-24T08:41:49.969Z,2.13
2022-08-24T08:45:00.690Z,2.17
2022-08-24T08:48:10.829Z,2.10
2022-08-24T08:51:26.798Z,2.40
2022-08-24T08:54:36.125Z,2.30
2022-08-24T08:57:20.050Z,2.40
2022-08-24T09:00:43.672Z,2.13
2022-08-24T09:03:48.052Z,2.13
2022-08-24T09:07:10.352Z,2.17
2022-08-24T09:10:20.936Z,2.17
2022-08-24T09:13:22.834Z,2.23
2022-08-24T09:16:31.684Z,2.23
2022-08-24T09:19:42.668Z,2.07
2022-08-24T09:22:18.520Z,2.43
2022-08-24T09:25:10.275Z,2.53
2022-08-24T09:28:35.950Z,2.30
2022-08-24T09:31:47.938Z,2.37
2022-08-24T09:34:28.362Z,2.13
2022-08-24T09:37:26.232Z,1.90
2022-08-24T09:40:27.432Z,2.67
2022-08-24T09:43:33.100Z,2.40
2022-08-24T09:46:34.371Z,2.17
2022-08-24T09:49:49.262Z,2.83
2022-08-24T09:53:17.651Z,2.03
2022-08-24T10:05:58.111Z,1.83
2022-08-24T10:08:51.420Z,1.93
2022-08-24T10:11:48.932Z,1.97
2022-08-24T10:20:50.317Z,2.10
2022-08-24T10:24:15.418Z,1.63
2022-08-24T10:27:08.637Z,1.87
2022-08-24T10:33:32.280Z,1.80
2022-08-24T10:36:30.957Z,2.30
2022-08-24T10:39:43.537Z,1.90
2022-08-24T10:43:02.270Z,2.23
2022-08-24T10:46:09.707Z,1.90
2022-08-24T10:49:16.926Z,2.00
2022-08-24T10:52:31.521Z,1.70
2022-08-24T10:55:15.784Z,2.00
2022-08-24T10:58:16.588Z,1.43
2022-08-24T11:00:43.999Z,1.67
2022-08-24T11:03:24.098Z,1.40
2022-08-24T11:05:57.497Z,1.47
2022-08-24T11:08:30.175Z,1.53
2022-08-24T11:11:13.521Z,1.60
2022-08-24T11:14:04.478Z,1.70
2022-08-24T11:16:42.387Z,1.30
2022-08-24T11:19:31.693Z,1.57
2022-08-24T11:22:02.141Z,1.60
2022-08-24T11:24:46.591Z,1.67
2022-08-24T11:27:33.865Z,1.40
2022-08-24T11:30:36.358Z,1.87
2022-08-24T11:33:06.277Z,1.30
2022-08-24T11:35:40.055Z,1.67
2022-08-24T11:38:31.648Z,1.20
2022-08-24T11:41:22.446Z,1.30
2022-08-24T11:44:25.358Z,1.50
2022-08-24T11:47:12.256Z,1.33
2022-08-24T11:50:21.731Z,1.50
2022-08-24T11:56:42.321Z,1.60
2022-08-24T11:59:43.383Z,1.37
2022-08-24T12:02:18.508Z,1.50
2022-08-24T12:05:21.208Z,1.27
2022-08-24T12:08:32.848Z,1.40
2022-08-24T12:11:33.774Z,1.50
2022-08-24T12:14:25.106Z,1.30
2022-08-24T12:17:13.074Z,1.37
2022-08-24T12:19:51.870Z,1.73
2022-08-24T12:22:20.825Z,1.27
2022-08-24T12:24:59.877Z,1.20
2022-08-24T12:27:32.315Z,1.20
2022-08-24T12:30:19.740Z,1.30
2022-08-24T12:32:58.898Z,1.40
2022-08-24T12:35:36.952Z,1.47
2022-08-24T12:38:27.980Z,1.20
2022-08-24T12:41:19.076Z,1.25
2022-08-24T12:43:58.524Z,1.55
2022-08-24T12:46:27.333Z,1.42
2022-08-24T12:49:22.132Z,1.38
2022-08-24T12:52:43.507Z,1.15
2022-08-24T12:55:52.343Z,1.45
2022-08-24T12:59:02.997Z,1.38
2022-08-24T13:01:35.952Z,1.30
2022-08-24T13:04:07.835Z,1.60
2022-08-24T13:06:49.545Z,1.90
2022-08-24T13:09:39.393Z,1.50
2022-08-24T13:12:51.190Z,1.80
2022-08-24T13:15:52.191Z,1.30
2022-08-24T13:18:50.790Z,1.80
2022-08-24T13:21:41.166Z,2.17
2022-08-24T13:24:51.425Z,1.60
2022-08-24T13:27:49.316Z,1.55
2022-08-24T13:30:27.482Z,1.23
2022-08-24T13:33:05.500Z,2.27
2022-08-24T13:36:23.020Z,1.50
2022-08-24T13:39:15.134Z,1.60
2022-08-24T13:42:13.770Z,1.30
2022-08-24T13:45:19.371Z,1.33
2022-08-24T13:48:32.938Z,1.38
2022-08-24T13:51:33.242Z,1.38
2022-08-24T13:54:50.899Z,1.60
2022-08-24T13:57:42.590Z,1.50
2022-08-24T14:00:33.269Z,1.75
2022-08-24T14:03:36.286Z,1.20
2022-08-24T14:06:21.702Z,1.30
2022-08-24T14:09:25.872Z,1.35
2022-08-24T14:12:26.216Z,1.40
2022-08-24T14:15:34.747Z,1.63
2022-08-24T14:18:15.775Z,1.60
2022-08-24T14:21:17.908Z,1.50
2022-08-24T14:24:08.107Z,1.30
2022-08-24T14:27:00.950Z,1.10
2022-08-24T14:29:35.069Z,1.02
2022-08-24T14:32:26.850Z,1.00
2022-08-24T14:35:10.602Z,1.10
2022-08-24T14:37:56.594Z,1.20
2022-08-24T14:40:37.030Z,1.10
2022-08-24T14:43:30.682Z,1.20
2022-08-24T14:46:41.270Z,1.10
2022-08-24T14:49:38.993Z,1.13
2022-08-24T14:52:31.170Z,1.20
2022-08-24T14:55:19.187Z,1.00
2022-08-24T14:58:35.469Z,1.13
2022-08-24T15:01:33.700Z,0.98
2022-08-24T15:04:37.319Z,1.00
2022-08-24T15:07:30.124Z,0.95
2022-08-24T15:09:58.473Z,1.25
2022-08-24T15:13:09.936Z,1.35
2022-08-24T15:16:15.805Z,0.90
2022-08-24T15:19:08.706Z,1.13
2022-08-24T15:22:07.811Z,1.20
2022-08-24T15:25:01.282Z,1.20
2022-08-24T15:27:55.313Z,1.13
2022-08-24T15:30:41.500Z,1.13
2022-08-24T15:33:19.691Z,1.10
2022-08-24T15:36:03.119Z,1.00
2022-08-24T15:38:35.457Z,1.10
2022-08-24T15:41:33.037Z,1.20
2022-08-24T15:44:10.899Z,1.30
2022-08-24T15:46:45.562Z,1.40
2022-08-24T15:49:34.871Z,1.27
2022-08-24T15:52:08.903Z,1.27
2022-08-24T15:54:43.232Z,1.30
2022-08-24T15:57:41.378Z,1.05
2022-08-24T16:00:44.368Z,1.20
2022-08-24T16:03:48.670Z,1.20
2022-08-24T16:06:46.558Z,1.40
2022-08-24T16:09:35.675Z,1.27
2022-08-24T16:12:22.054Z,1.13
2022-08-24T16:14:56.030Z,1.25
2022-08-24T16:17:37.717Z,1.30
2022-08-24T16:20:31.991Z,1.30
2022-08-24T16:23:06.328Z,1.33
2022-08-24T16:25:39.829Z,1.50
2022-08-24T16:28:34.042Z,1.55
2022-08-24T16:31:07.308Z,1.27
2022-08-24T16:33:46.864Z,1.23
2022-08-24T16:36:19.943Z,1.50
2022-08-24T16:38:50.006Z,0.90
2022-08-24T16:41:21.250Z,1.02
2022-08-24T16:43:49.024Z,1.30
2022-08-24T16:46:21.980Z,1.17
2022-08-24T16:48:49.269Z,1.60
2022-08-24T16:51:16.347Z,1.00
2022-08-24T16:53:43.822Z,1.30
2022-08-24T16:56:13.631Z,1.10
2022-08-24T16:58:43.787Z,1.30
2022-08-24T17:01:10.902Z,1.20
2022-08-24T17:03:38.137Z,1.10
2022-08-24T17:06:05.438Z,1.30
2022-08-24T17:08:34.098Z,1.10
2022-08-24T17:11:02.530Z,1.10
2022-08-24T17:16:18.112Z,1.20
2022-08-24T17:18:45.318Z,1.40
2022-08-24T17:21:12.430Z,1.60
2022-08-24T17:23:41.338Z,1.10
2022-08-24T17:26:20.721Z,1.30
2022-08-24T17:28:51.935Z,1.20
2022-08-24T17:31:19.154Z,1.40
2022-08-24T17:33:46.266Z,1.40
2022-08-24T17:36:15.670Z,1.13
2022-08-24T17:38:54.518Z,1.60
2022-08-24T17:41:23.741Z,1.40
2022-08-24T17:43:50.965Z,1.50
2022-08-24T17:46:19.857Z,1.47
2022-08-24T17:48:47.495Z,1.50
2022-08-24T17:51:15.172Z,1.20
2022-08-24T17:53:42.432Z,1.30
2022-08-24T17:56:11.201Z,1.30
2022-08-24T17:58:58.113Z,1.37
2022-08-24T18:01:25.392Z,1.60
2022-08-24T18:03:52.626Z,1.70
2022-08-24T18:06:23.362Z,1.33
2022-08-24T18:08:51.533Z,1.40
2022-08-24T18:11:21.567Z,1.30
2022-08-24T18:13:51.294Z,1.33
2022-08-24T18:16:22.316Z,1.37
2022-08-24T18:18:51.944Z,1.40
2022-08-24T18:21:20.230Z,1.43
2022-08-24T18:23:48.641Z,1.40
2022-08-24T18:26:22.362Z,1.60
2022-08-24T18:29:04.714Z,1.70
2022-08-24T18:31:32.143Z,1.60
2022-08-24T18:33:59.201Z,1.40
2022-08-24T18:36:26.315Z,1.63
2022-08-24T18:38:53.451Z,1.60
2022-08-24T18:41:21.310Z,1.50
2022-08-24T18:43:48.821Z,1.33
2022-08-24T18:46:16.019Z,1.80
2022-08-24T18:48:43.195Z,1.57
2022-08-24T18:51:11.880Z,1.73
2022-08-24T18:53:39.213Z,1.60
2022-08-24T18:56:11.808Z,1.80
2022-08-24T18:58:39.740Z,1.60
2022-08-24T19:01:07.101Z,1.60
2022-08-24T19:03:35.041Z,1.63
2022-08-24T19:06:02.141Z,1.90
2022-08-24T19:08:29.351Z,1.90
2022-08-24T19:10:56.571Z,1.80
2022-08-24T19:13:23.763Z,1.67
2022-08-24T19:15:51.122Z,1.70
2022-08-24T19:18:21.454Z,1.60
2022-08-24T19:20:51.382Z,1.77
2022-08-24T19:23:37.746Z,1.83
2022-08-24T19:26:05.289Z,1.80
2022-08-24T19:28:33.005Z,2.10
2022-08-24T19:31:03.152Z,1.70
2022-08-24T19:33:36.883Z,1.80
2022-08-24T19:36:04.903Z,2.00
2022-08-24T19:38:32.192Z,1.80
2022-08-24T19:40:59.750Z,1.77
2022-08-24T19:43:28.957Z,1.83
2022-08-24T19:46:05.736Z,2.03
2022-08-24T19:48:36.445Z,1.80
2022-08-24T19:51:11.964Z,2.10
2022-08-24T19:53:39.692Z,2.20
2022-08-24T19:56:07.685Z,2.00
2022-08-24T19:58:44.725Z,1.93
2022-08-24T20:01:17.516Z,2.43
2022-08-24T20:03:44.984Z,2.13
2022-08-24T20:06:13.130Z,2.07
2022-08-24T20:08:41.143Z,2.20
2022-08-24T20:11:08.705Z,1.90
2022-08-24T20:13:36.403Z,2.20
2022-08-24T20:16:10.582Z,2.00
2022-08-24T20:18:38.922Z,2.17
2022-08-24T20:21:07.114Z,2.30
2022-08-24T20:23:34.370Z,2.23
2022-08-24T20:26:03.974Z,2.30
2022-08-24T20:29:00.643Z,2.53
2022-08-24T20:31:28.961Z,2.10
2022-08-24T20:33:57.623Z,2.27
2022-08-24T20:36:39.377Z,2.03
2022-08-24T20:39:09.837Z,2.20
2022-08-24T20:41:37.650Z,2.27
2022-08-24T20:44:05.362Z,2.30
2022-08-24T20:46:32.784Z,2.20
2022-08-24T20:49:01.857Z,2.50
2022-08-24T20:51:29.575Z,2.10
2022-08-24T20:53:56.892Z,2.27
2022-08-24T20:56:31.375Z,2.30
2022-08-24T20:59:03.718Z,2.37
2022-08-24T21:01:31.770Z,2.60
2022-08-24T21:04:04.771Z,2.70
2022-08-24T21:06:33.112Z,2.67
2022-08-24T21:09:01.050Z,2.70
2022-08-24T21:11:28.377Z,2.67
2022-08-24T21:13:55.804Z,3.00
2022-08-24T21:16:23.222Z,2.80
2022-08-24T21:18:50.430Z,2.67
2022-08-24T21:21:17.968Z,3.00
2022-08-24T21:23:45.066Z,2.97
2022-08-24T21:26:15.504Z,2.80
2022-08-24T21:28:43.870Z,2.80
2022-08-24T21:31:11.271Z,3.00
2022-08-24T21:33:57.477Z,3.13
2022-08-24T21:36:26.397Z,3.07
2022-08-24T21:38:54.708Z,2.93
2022-08-24T21:41:22.362Z,2.93
2022-08-24T21:43:50.381Z,2.93
2022-08-24T21:46:18.562Z,2.87
2022-08-24T21:48:46.563Z,3.20
2022-08-24T21:51:14.018Z,3.00
2022-08-24T21:53:41.058Z,3.13
2022-08-24T21:56:08.645Z,3.07
2022-08-24T21:58:35.945Z,3.60
2022-08-24T22:01:05.062Z,3.63
2022-08-24T22:03:37.488Z,3.37
2022-08-24T22:06:11.654Z,3.30
2022-08-24T22:08:42.123Z,3.77
2022-08-24T22:11:11.908Z,3.40
2022-08-24T22:13:39.931Z,3.60
2022-08-24T22:16:07.526Z,3.73
2022-08-24T22:18:35.604Z,3.60
2022-08-24T22:21:12.267Z,3.50
2022-08-24T22:23:40.139Z,3.60
2022-08-24T22:26:08.536Z,3.63
2022-08-24T22:28:37.948Z,4.00
2022-08-24T22:31:19.417Z,3.53
2022-08-24T22:33:47.928Z,3.70
2022-08-24T22:36:15.546Z,3.40
2022-08-24T22:38:43.266Z,3.57
2022-08-24T22:41:10.953Z,3.87
2022-08-24T22:43:57.369Z,3.50
2022-08-24T22:46:26.236Z,3.77
2022-08-24T22:48:53.749Z,3.50
2022-08-24T22:51:21.522Z,3.50
2022-08-24T22:53:49.370Z,3.37
2022-08-24T22:56:22.150Z,4.17
2022-08-24T22:58:50.529Z,3.97
2022-08-24T23:01:27.882Z,3.90
2022-08-24T23:03:56.491Z,3.50
2022-08-24T23:06:24.201Z,4.00
2022-08-24T23:08:52.006Z,4.13
2022-08-24T23:11:23.512Z,3.83
2022-08-24T23:13:51.672Z,3.90
2022-08-24T23:16:18.968Z,4.07
2022-08-24T23:19:05.065Z,3.80
2022-08-24T23:21:32.173Z,4.13
2022-08-24T23:23:59.525Z,3.70
2022-08-24T23:26:26.889Z,3.73
2022-08-24T23:28:54.628Z,3.70
2022-08-24T23:31:22.329Z,4.33
2022-08-24T23:33:49.833Z,4.07
2022-08-24T23:36:21.138Z,3.90
2022-08-24T23:38:52.834Z,4.53
2022-08-24T23:41:23.608Z,4.00
2022-08-24T23:43:50.944Z,4.10
2022-08-24T23:46:18.285Z,4.20
2022-08-24T23:48:51.088Z,4.07
2022-08-24T23:51:23.402Z,3.97
2022-08-24T23:53:51.845Z,3.97
2022-08-24T23:56:31.685Z,4.00
2022-08-24T23:59:01.438Z,4.17
